Time;durP1;ratioP1;P1;durP2;ratioP2;P2;SDS_P1;SDS_P2;PMS_P1;PMS_P2;Temp;Humidity;BMP_temperature;BMP_pressure;BME280_temperature;BME280_humidity;BME280_pressure;Samples;Min_cycle;Max_cycle;Signal;HPM_P1;HPM_P2
2022/06/05 00:03:33;;;;;;;;;;;;;;;21.03;70.64;99185.00;7882626;30;19930;-72
2022/06/05 00:17:39;;;;;;;;;;;;;;;20.78;71.21;99124.66;7873499;30;20018;-72
2022/06/05 00:21:41;;;;;;;;;;;;;;;20.77;71.36;99110.63;7879285;30;20367;-72
2022/06/05 00:25:52;;;;;;;;;;;;;;;20.73;71.50;99087.97;7872815;30;20021;-72
2022/06/05 00:29:57;;;;;;;;;;;;;;;20.68;71.87;99046.91;7872226;30;20016;-72
2022/06/05 00:33:58;;;;;;;;;;;;;;;20.64;71.75;99037.44;7876850;30;19930;-72
2022/06/05 00:38:07;;;;;;;;;;;;;;;20.60;71.66;99034.09;7878442;30;19960;-72
2022/06/05 00:42:10;;;;;;;;;;;;;;;20.61;71.68;99024.41;7876386;30;19940;-73
2022/06/05 00:46:11;;;;;;;;;;;;;;;20.61;71.61;99019.13;7874207;30;19956;-72
2022/06/05 00:50:15;;;;;;;;;;;;;;;20.60;71.52;99017.41;7881110;30;19940;-72
2022/06/05 00:54:16;;;;;;;;;;;;;;;20.59;71.24;99015.72;7881127;30;20020;-72
2022/06/05 00:58:19;;;;;;;;;;;;;;;20.58;71.11;99012.22;7883939;30;19940;-72
2022/06/05 01:02:20;;;;;;;;;;;;;;;20.55;71.21;99024.72;7884290;30;20266;-72
2022/06/05 01:06:22;;;;;;;;;;;;;;;20.52;71.23;99004.63;7875615;30;19937;-72
2022/06/05 01:10:30;;;;;;;;;;;;;;;20.49;71.33;98987.19;7888206;30;20024;-72
2022/06/05 01:14:43;;;;;;;;;;;;;;;20.43;71.24;98982.19;7887843;30;19940;-72
2022/06/05 01:18:50;;;;;;;;;;;;;;;20.41;71.26;98959.47;7895109;30;19973;-72
2022/06/05 01:22:54;;;;;;;;;;;;;;;20.39;71.20;98971.88;7866012;30;19981;-72
2022/06/05 01:27:00;;;;;;;;;;;;;;;20.37;71.33;98982.50;7893752;30;20013;-72
2022/06/05 01:31:07;;;;;;;;;;;;;;;20.34;71.41;98981.81;7884125;30;20022;-72
2022/06/05 01:35:29;;;;;;;;;;;;;;;20.31;71.54;98989.88;7897837;30;19930;-72
2022/06/05 01:39:45;;;;;;;;;;;;;;;20.29;71.75;98965.34;7878374;30;20029;-72
2022/06/05 01:43:49;;;;;;;;;;;;;;;20.26;71.92;98936.50;7875387;30;19940;-72
2022/06/05 01:47:52;;;;;;;;;;;;;;;20.23;72.08;98919.91;7894076;30;19937;-72
2022/06/05 01:52:02;;;;;;;;;;;;;;;20.19;72.46;98926.28;7884295;30;19973;-72
2022/06/05 01:56:07;;;;;;;;;;;;;;;20.17;72.49;98914.09;7876481;30;19929;-72
2022/06/05 02:00:11;;;;;;;;;;;;;;;20.12;72.58;98893.25;7878431;30;19929;-72
2022/06/05 02:04:15;;;;;;;;;;;;;;;20.08;73.23;98896.09;7886194;30;20335;-72
2022/06/05 02:08:22;;;;;;;;;;;;;;;20.08;73.17;98928.59;7885411;30;20026;-72
2022/06/05 02:12:23;;;;;;;;;;;;;;;20.05;73.36;98951.63;7884028;30;19930;-72
2022/06/05 02:16:26;;;;;;;;;;;;;;;20.02;73.56;98973.72;7883373;30;19969;-72
2022/06/05 02:20:28;;;;;;;;;;;;;;;20.00;73.65;98993.19;7894803;30;19930;-72
2022/06/05 02:24:29;;;;;;;;;;;;;;;19.97;74.11;99031.09;7883590;30;20617;-72
2022/06/05 02:28:31;;;;;;;;;;;;;;;19.90;74.46;99064.75;7883367;30;20024;-72
2022/06/05 02:32:53;;;;;;;;;;;;;;;19.87;74.70;99101.81;7884800;30;19960;-72
2022/06/05 02:37:03;;;;;;;;;;;;;;;19.79;75.34;99134.72;7884459;30;20333;-72
2022/06/05 02:41:07;;;;;;;;;;;;;;;19.75;75.92;99133.13;7890927;30;19929;-72
2022/06/05 02:45:19;;;;;;;;;;;;;;;19.73;76.12;99141.09;7885684;30;19930;-72
2022/06/05 02:49:25;;;;;;;;;;;;;;;19.72;76.83;99131.50;7886535;30;19981;-72
2022/06/05 02:53:26;;;;;;;;;;;;;;;19.73;77.25;99122.66;7886111;30;20031;-72
2022/06/05 02:57:27;;;;;;;;;;;;;;;19.74;77.36;99118.25;7900433;30;19930;-72
2022/06/05 03:05:49;;;;;;;;;;;;;;;19.61;80.15;99128.50;7881950;30;19926;-72
2022/06/05 03:09:51;;;;;;;;;;;;;;;19.54;80.44;99122.66;7877582;30;19930;-72
2022/06/05 03:13:53;;;;;;;;;;;;;;;19.50;81.07;99123.69;7875622;30;19933;-72
2022/06/05 03:17:54;;;;;;;;;;;;;;;19.46;81.97;99118.63;7875968;30;20527;-72
2022/06/05 03:21:55;;;;;;;;;;;;;;;19.37;83.85;99142.72;7875906;30;19930;-72
2022/06/05 03:25:57;;;;;;;;;;;;;;;19.30;84.81;99161.44;7892486;30;19940;-72
2022/06/05 03:29:59;;;;;;;;;;;;;;;19.28;85.75;99173.81;7879198;30;19929;-71
2022/06/05 03:34:00;;;;;;;;;;;;;;;19.21;86.83;99185.53;7874908;30;19957;-72
2022/06/05 03:38:04;;;;;;;;;;;;;;;19.14;87.92;99207.75;7878887;30;19930;-72
2022/06/05 03:42:06;;;;;;;;;;;;;;;19.09;89.04;99214.16;7890464;30;20029;-71
2022/06/05 03:46:09;;;;;;;;;;;;;;;19.04;90.01;99221.38;7879741;30;19930;-72
2022/06/05 03:50:12;;;;;;;;;;;;;;;18.95;90.26;99212.09;7895065;30;19957;-73
2022/06/05 03:54:13;;;;;;;;;;;;;;;18.89;90.91;99214.97;7879277;30;20036;-72
2022/06/05 03:58:15;;;;;;;;;;;;;;;18.88;91.80;99216.75;7876639;30;19937;-72
2022/06/05 04:02:16;;;;;;;;;;;;;;;18.84;92.29;99198.50;7893426;30;19938;-72
2022/06/05 04:06:20;;;;;;;;;;;;;;;18.85;92.61;99200.22;7878244;30;19933;-71
2022/06/05 04:10:21;;;;;;;;;;;;;;;18.82;93.14;99197.72;7893941;30;20057;-71
2022/06/05 04:14:23;;;;;;;;;;;;;;;18.79;93.29;99200.47;7876109;30;19944;-72
2022/06/05 04:18:24;;;;;;;;;;;;;;;18.76;93.60;99195.34;7893739;29;20004;-72
2022/06/05 04:22:26;;;;;;;;;;;;;;;18.71;93.93;99183.25;7875217;30;19940;-71
2022/06/05 04:26:29;;;;;;;;;;;;;;;18.68;93.87;99177.25;7898083;30;19940;-71
2022/06/05 04:30:34;;;;;;;;;;;;;;;18.66;94.13;99165.91;7885338;30;19926;-71
2022/06/05 04:34:37;;;;;;;;;;;;;;;18.64;94.26;99159.88;7881119;30;19959;-72
2022/06/05 04:38:38;;;;;;;;;;;;;;;18.62;94.54;99144.13;7881447;30;20375;-72
2022/06/05 04:42:40;;;;;;;;;;;;;;;18.62;94.82;99123.06;7885101;30;20008;-73
2022/06/05 04:46:42;;;;;;;;;;;;;;;18.63;94.78;99100.28;7886665;30;20040;-73
2022/06/05 04:50:43;;;;;;;;;;;;;;;18.63;94.41;99027.50;7881281;30;19934;-73
2022/06/05 04:54:45;;;;;;;;;;;;;;;18.61;94.60;99065.28;7900645;30;20320;-73
2022/06/05 04:58:46;;;;;;;;;;;;;;;18.61;94.65;99068.78;7882411;30;20319;-74
2022/06/05 05:02:48;;;;;;;;;;;;;;;18.63;94.54;99039.81;7877542;30;19968;-75
2022/06/05 05:06:49;;;;;;;;;;;;;;;18.63;94.64;98982.81;7896828;30;20617;-74
2022/06/05 05:10:51;;;;;;;;;;;;;;;18.63;94.42;98953.88;7878731;30;20049;-75
2022/06/05 05:14:53;;;;;;;;;;;;;;;18.66;94.38;98963.41;7886173;30;19940;-74
2022/06/05 05:18:54;;;;;;;;;;;;;;;18.70;94.02;98968.47;7886982;30;19929;-74
2022/06/05 05:22:56;;;;;;;;;;;;;;;18.78;93.74;98970.75;7879388;30;19929;-74
2022/06/05 05:26:58;;;;;;;;;;;;;;;18.85;93.74;98955.53;7883530;30;19930;-74
2022/06/05 05:31:01;;;;;;;;;;;;;;;18.91;93.58;98952.66;7885036;30;19930;-74
2022/06/05 05:35:03;;;;;;;;;;;;;;;18.95;93.50;98970.84;7882577;30;19933;-74
2022/06/05 05:43:25;;;;;;;;;;;;;;;19.10;93.50;98981.63;7879481;30;19973;-75
2022/06/05 05:47:28;;;;;;;;;;;;;;;19.17;93.38;98985.66;7883595;30;20015;-75
2022/06/05 05:51:29;;;;;;;;;;;;;;;19.21;92.22;98989.84;7876431;30;19929;-75
2022/06/05 05:55:31;;;;;;;;;;;;;;;19.41;91.60;98997.72;7883050;30;19979;-75
2022/06/05 05:59:32;;;;;;;;;;;;;;;19.74;91.17;99002.31;7882101;30;19936;-75
2022/06/05 06:03:34;;;;;;;;;;;;;;;19.94;90.12;98996.97;7879455;30;19943;-75
2022/06/05 06:07:36;;;;;;;;;;;;;;;19.90;89.06;99005.94;7891553;30;20753;-75
2022/06/05 06:11:37;;;;;;;;;;;;;;;19.79;88.67;99002.97;7878199;30;19956;-74
2022/06/05 06:15:39;;;;;;;;;;;;;;;19.69;88.44;99007.81;7880203;30;20340;-75
2022/06/05 06:19:40;;;;;;;;;;;;;;;19.61;89.05;99013.47;7881701;30;19925;-75
2022/06/05 06:23:41;;;;;;;;;;;;;;;19.54;90.01;99019.94;7880395;30;20637;-75
2022/06/05 06:27:44;;;;;;;;;;;;;;;19.48;90.98;99020.19;7892330;30;20642;-76
2022/06/05 06:31:45;;;;;;;;;;;;;;;19.48;91.00;99032.50;7876816;30;19930;-75
2022/06/05 06:35:47;;;;;;;;;;;;;;;19.51;90.58;99046.38;7872499;30;20600;-77
2022/06/05 06:39:48;;;;;;;;;;;;;;;19.58;91.10;99047.00;7883312;30;19929;-76
2022/06/05 06:43:49;;;;;;;;;;;;;;;19.64;90.70;99045.84;7885841;30;19936;-75
2022/06/05 06:47:52;;;;;;;;;;;;;;;19.72;90.11;99023.47;7896819;30;19976;-76
2022/06/05 06:51:53;;;;;;;;;;;;;;;19.84;90.42;99019.41;7862486;30;19977;-75
2022/06/05 06:55:55;;;;;;;;;;;;;;;19.99;90.97;99012.56;7876062;30;20697;-73
2022/06/05 06:59:56;;;;;;;;;;;;;;;20.10;90.08;99015.50;7882653;30;19930;-73
2022/06/05 07:03:58;;;;;;;;;;;;;;;20.26;89.79;99012.97;7882915;30;19950;-73
2022/06/05 07:07:59;;;;;;;;;;;;;;;20.37;87.89;99016.78;7879334;30;19930;-73
2022/06/05 07:12:01;;;;;;;;;;;;;;;20.53;86.49;99014.25;7879477;30;20221;-73
2022/06/05 07:16:04;;;;;;;;;;;;;;;20.71;85.23;99015.94;7877675;30;20395;-72
2022/06/05 07:20:07;;;;;;;;;;;;;;;20.93;84.89;99010.41;7873619;30;19980;-73
2022/06/05 07:24:09;;;;;;;;;;;;;;;21.17;85.25;99010.00;7877839;30;20339;-73
2022/06/05 07:28:10;;;;;;;;;;;;;;;21.45;82.34;99004.13;7878276;30;19942;-73
2022/06/05 07:32:13;;;;;;;;;;;;;;;21.70;81.61;99000.03;7883214;30;19936;-73
2022/06/05 07:36:16;;;;;;;;;;;;;;;21.67;80.72;99005.50;7883026;30;19930;-73
2022/06/05 07:40:18;;;;;;;;;;;;;;;21.59;81.17;98994.50;7877177;30;19929;-73
2022/06/05 07:44:19;;;;;;;;;;;;;;;21.74;79.81;99000.75;7872687;30;20339;-73
2022/06/05 07:48:21;;;;;;;;;;;;;;;21.95;79.56;99003.94;7875161;30;19940;-73
2022/06/05 07:56:43;;;;;;;;;;;;;;;22.15;77.03;99011.63;7874484;30;19973;-73
2022/06/05 08:00:44;;;;;;;;;;;;;;;22.19;76.17;99020.22;7873405;30;20021;-73
2022/06/05 08:04:46;;;;;;;;;;;;;;;22.17;76.43;99030.91;7874965;30;19929;-73
2022/06/05 08:08:47;;;;;;;;;;;;;;;22.06;78.21;99030.66;7868452;30;19930;-73
2022/06/05 08:12:49;;;;;;;;;;;;;;;21.98;78.84;99019.63;7874656;30;19965;-73
2022/06/05 08:16:51;;;;;;;;;;;;;;;22.15;78.51;99019.56;7873672;30;19934;-73
2022/06/05 08:20:52;;;;;;;;;;;;;;;22.19;76.67;99022.88;7893842;30;19936;-74
2022/06/05 08:24:54;;;;;;;;;;;;;;;22.31;77.25;99012.44;7870946;30;19944;-73
2022/06/05 08:28:55;;;;;;;;;;;;;;;22.37;77.26;99020.94;7878164;30;19930;-73
2022/06/05 08:32:57;;;;;;;;;;;;;;;22.32;76.56;99018.59;7893091;30;19934;-73
2022/06/05 08:41:27;;;;;;;;;;;;;;;22.11;77.26;99027.75;7869108;30;20012;-73
2022/06/05 08:45:49;;;;;;;;;;;;;;;22.18;78.35;99016.72;7894448;29;20040;-73
2022/06/05 08:49:59;;;;;;;;;;;;;;;22.27;77.37;99015.38;7866285;30;19929;-73
2022/06/05 08:54:03;;;;;;;;;;;;;;;22.45;77.39;99011.63;7891715;30;19936;-74
2022/06/05 08:58:11;;;;;;;;;;;;;;;22.73;75.67;98996.75;7879015;30;20305;-73
2022/06/05 09:02:12;;;;;;;;;;;;;;;22.87;75.09;99002.94;7872456;30;19968;-73
2022/06/05 09:06:17;;;;;;;;;;;;;;;22.91;72.92;98995.66;7871372;30;19938;-73
2022/06/05 09:10:19;;;;;;;;;;;;;;;22.98;74.22;99009.38;7876948;30;19929;-73
2022/06/05 09:14:20;;;;;;;;;;;;;;;23.34;71.65;99006.22;7869956;30;19958;-73
2022/06/05 09:18:22;;;;;;;;;;;;;;;23.86;69.41;98998.47;7873385;30;19949;-74
2022/06/05 09:22:33;;;;;;;;;;;;;;;24.60;68.24;98992.69;7879543;30;19936;-73
2022/06/05 09:26:37;;;;;;;;;;;;;;;25.33;66.99;98997.38;7882561;30;19929;-73
2022/06/05 09:30:49;;;;;;;;;;;;;;;25.32;64.01;98990.34;7894569;30;19937;-73
2022/06/05 09:34:51;;;;;;;;;;;;;;;24.95;64.82;98979.59;7880088;30;19937;-74
2022/06/05 09:39:01;;;;;;;;;;;;;;;25.04;64.30;98977.31;7883862;30;20041;-74
2022/06/05 09:43:08;;;;;;;;;;;;;;;24.89;64.50;98982.69;7881244;30;19953;-73
2022/06/05 09:47:16;;;;;;;;;;;;;;;24.74;62.80;98974.94;7899796;30;19933;-73
2022/06/05 09:51:17;;;;;;;;;;;;;;;24.45;63.57;98976.94;7896870;30;20328;-73
2022/06/05 09:55:19;;;;;;;;;;;;;;;24.13;63.77;98976.41;7874202;30;20814;-73
2022/06/05 09:59:24;;;;;;;;;;;;;;;23.95;65.29;98974.03;7894235;30;20017;-73
2022/06/05 10:03:29;;;;;;;;;;;;;;;23.69;63.56;98966.91;7878153;30;20246;-72
2022/06/05 10:07:33;;;;;;;;;;;;;;;23.56;65.02;98964.19;7880746;30;19929;-73
2022/06/05 10:11:52;;;;;;;;;;;;;;;23.65;64.55;98962.75;7882430;30;20032;-73
2022/06/05 10:16:00;;;;;;;;;;;;;;;23.73;65.25;98960.47;7878647;30;20351;-72
2022/06/05 10:20:05;;;;;;;;;;;;;;;23.94;64.34;98958.22;7880412;30;19930;-72
2022/06/05 10:24:16;;;;;;;;;;;;;;;24.33;64.33;98950.28;7876948;30;19969;-73
2022/06/05 10:28:28;;;;;;;;;;;;;;;24.62;63.63;98952.75;7877024;30;19952;-72
2022/06/05 10:33:01;;;;;;;;;;;;;;;24.62;61.31;98937.66;7876908;30;19930;-72
2022/06/05 10:37:10;;;;;;;;;;;;;;;24.86;64.31;98945.72;7881243;30;19929;-72
2022/06/05 10:41:23;;;;;;;;;;;;;;;25.07;61.81;98940.75;7877957;30;19930;-73
2022/06/05 10:45:35;;;;;;;;;;;;;;;25.10;61.75;98945.81;7880231;30;19982;-72
2022/06/05 10:49:42;;;;;;;;;;;;;;;25.47;61.13;98944.03;7882320;30;20383;-73
2022/06/05 10:53:50;;;;;;;;;;;;;;;25.74;59.97;98943.03;7898363;30;20025;-73
2022/06/05 10:57:55;;;;;;;;;;;;;;;25.86;58.80;98942.97;7875675;30;19965;-72
2022/06/05 11:02:19;;;;;;;;;;;;;;;25.75;57.99;98956.19;7879775;30;19997;-72
2022/06/05 11:06:25;;;;;;;;;;;;;;;25.51;58.41;98955.31;7888698;30;19930;-72
2022/06/05 11:15:05;;;;;;;;;;;;;;;24.67;60.47;98942.66;7882976;30;19968;-72
2022/06/05 11:19:08;;;;;;;;;;;;;;;24.39;62.24;98947.19;7885901;30;20032;-72
2022/06/05 11:23:17;;;;;;;;;;;;;;;24.10;62.32;98973.03;7898575;30;19929;-72
2022/06/05 11:27:33;;;;;;;;;;;;;;;23.41;63.32;98984.56;7879920;30;20336;-72
2022/06/05 11:31:42;;;;;;;;;;;;;;;22.83;67.54;98993.50;7880400;30;19930;-73
2022/06/05 11:35:45;;;;;;;;;;;;;;;22.38;71.72;98989.13;7894494;30;19934;-72
2022/06/05 11:40:09;;;;;;;;;;;;;;;22.03;73.81;98991.97;7876487;30;19961;-72
2022/06/05 11:44:14;;;;;;;;;;;;;;;21.67;76.07;98994.94;7880896;30;19936;-71
2022/06/05 11:48:30;;;;;;;;;;;;;;;21.51;78.48;99001.13;7880416;30;20410;-72
2022/06/05 11:52:41;;;;;;;;;;;;;;;21.41;79.68;99014.03;7873904;30;20510;-73
2022/06/05 11:56:55;;;;;;;;;;;;;;;21.62;80.65;99006.69;7888302;30;20365;-73
2022/06/05 12:00:59;;;;;;;;;;;;;;;21.68;79.66;99012.47;7878335;30;20312;-73
2022/06/05 12:05:19;;;;;;;;;;;;;;;21.62;77.93;99020.75;7875855;30;19961;-73
2022/06/05 12:09:30;;;;;;;;;;;;;;;21.63;77.19;99025.09;7881854;30;20044;-73
2022/06/05 12:13:44;;;;;;;;;;;;;;;21.55;77.32;99029.97;7879486;30;19952;-73
2022/06/05 12:17:56;;;;;;;;;;;;;;;21.68;77.33;99032.78;7879294;30;19955;-72
2022/06/05 12:22:02;;;;;;;;;;;;;;;22.03;77.50;99036.94;7883935;30;19961;-72
2022/06/05 12:26:09;;;;;;;;;;;;;;;22.24;72.39;99031.38;7882281;30;20016;-72
2022/06/05 12:30:17;;;;;;;;;;;;;;;22.35;72.82;99025.47;7880343;30;19930;-72
2022/06/05 12:34:26;;;;;;;;;;;;;;;22.51;72.81;99018.34;7875114;30;19953;-72
2022/06/05 12:38:37;;;;;;;;;;;;;;;22.68;69.91;99017.34;7879991;30;20053;-72
2022/06/05 12:42:44;;;;;;;;;;;;;;;22.75;69.12;99006.28;7874505;30;19930;-72
2022/06/05 12:46:53;;;;;;;;;;;;;;;22.64;67.28;99014.03;7875902;30;19940;-72
2022/06/05 12:50:54;;;;;;;;;;;;;;;22.54;67.27;99021.66;7901996;30;19936;-72
2022/06/05 12:55:05;;;;;;;;;;;;;;;22.51;68.03;99024.50;7886858;30;19980;-72
2022/06/05 12:59:17;;;;;;;;;;;;;;;22.55;69.29;99025.16;7881570;30;20024;-73
2022/06/05 13:03:22;;;;;;;;;;;;;;;22.69;67.18;99022.56;7882241;30;20228;-72
2022/06/05 13:07:32;;;;;;;;;;;;;;;22.88;67.88;99024.97;7878129;30;20002;-71
2022/06/05 13:11:41;;;;;;;;;;;;;;;22.99;68.44;99029.63;7874794;30;19961;-73
2022/06/05 13:15:49;;;;;;;;;;;;;;;22.81;66.62;99031.56;7871787;30;19991;-73
2022/06/05 13:19:54;;;;;;;;;;;;;;;22.65;67.45;99044.00;7892116;30;19940;-73
2022/06/05 13:24:13;;;;;;;;;;;;;;;22.38;69.15;99054.41;7874215;30;19937;-73
2022/06/05 13:28:31;;;;;;;;;;;;;;;22.11;69.73;99073.56;7873790;30;19930;-72
2022/06/05 13:32:44;;;;;;;;;;;;;;;21.59;72.58;99081.72;7898745;29;19965;-70
2022/06/05 13:36:55;;;;;;;;;;;;;;;21.04;76.33;99087.25;7873279;30;19929;-72
2022/06/05 13:41:11;;;;;;;;;;;;;;;20.65;78.34;99094.56;7874803;30;19933;-72
2022/06/05 13:45:21;;;;;;;;;;;;;;;20.02;79.70;99121.31;7876942;30;21222;-74
2022/06/05 13:49:26;;;;;;;;;;;;;;;19.76;81.11;99138.34;7880913;30;19989;-72
2022/06/05 13:53:37;;;;;;;;;;;;;;;19.53;83.14;99163.03;7881687;30;19936;-74
2022/06/05 13:57:39;;;;;;;;;;;;;;;19.31;82.51;99144.72;7882216;30;19938;-72
2022/06/05 14:01:47;;;;;;;;;;;;;;;19.11;83.70;99144.72;7881824;30;20418;-72
2022/06/05 14:05:51;;;;;;;;;;;;;;;18.92;85.21;99139.41;7876591;30;19930;-72
2022/06/05 14:10:04;;;;;;;;;;;;;;;18.67;84.91;99130.81;7880520;30;20418;-71
2022/06/05 14:14:07;;;;;;;;;;;;;;;18.50;85.67;99133.25;7878888;30;19930;-71
2022/06/05 14:18:19;;;;;;;;;;;;;;;18.37;84.76;99123.25;7881541;30;19976;-72
2022/06/05 14:22:22;;;;;;;;;;;;;;;18.27;84.94;99106.09;7871971;30;19929;-71
2022/06/05 14:26:35;;;;;;;;;;;;;;;18.26;85.97;99058.88;7878654;30;19950;-72
2022/06/05 14:30:42;;;;;;;;;;;;;;;18.22;86.80;98971.41;7875475;30;19965;-73
2022/06/05 14:34:45;;;;;;;;;;;;;;;18.20;87.42;98996.06;7879058;30;19930;-73
2022/06/05 14:38:57;;;;;;;;;;;;;;;18.24;88.83;98997.63;7885746;30;19940;-73
2022/06/05 14:43:04;;;;;;;;;;;;;;;18.27;89.20;99023.78;7881969;30;19930;-75
2022/06/05 14:47:16;;;;;;;;;;;;;;;18.31;89.61;99051.63;7878888;30;19930;-73
2022/06/05 14:51:37;;;;;;;;;;;;;;;18.52;90.17;99069.19;7881432;30;20613;-73
2022/06/05 15:00:12;;;;;;;;;;;;;;;19.06;90.26;99088.81;7881730;30;20312;-73
2022/06/05 15:04:23;;;;;;;;;;;;;;;19.24;89.52;99116.97;7879546;30;19979;-74
2022/06/05 15:08:37;;;;;;;;;;;;;;;19.42;88.75;99157.41;7880657;30;20232;-74
2022/06/05 15:12:43;;;;;;;;;;;;;;;19.51;87.37;99161.41;7876989;30;20346;-74
2022/06/05 15:16:49;;;;;;;;;;;;;;;19.86;87.93;99160.69;7895087;30;20012;-74
2022/06/05 15:20:55;;;;;;;;;;;;;;;20.20;82.57;99164.41;7865991;30;19933;-74
2022/06/05 15:25:05;;;;;;;;;;;;;;;20.12;78.56;99170.06;7876008;30;20243;-73
2022/06/05 15:29:16;;;;;;;;;;;;;;;20.04;80.30;99173.97;7875772;30;19965;-72
2022/06/05 15:33:17;;;;;;;;;;;;;;;20.39;80.73;99174.94;7870425;30;19929;-72
2022/06/05 15:37:37;;;;;;;;;;;;;;;20.63;77.74;99160.56;7881117;30;19941;-72
2022/06/05 15:41:58;;;;;;;;;;;;;;;20.65;74.34;99160.53;7875392;30;19934;-72
2022/06/05 15:46:22;;;;;;;;;;;;;;;20.90;76.68;99155.72;7878680;30;19929;-72
2022/06/05 15:50:43;;;;;;;;;;;;;;;21.13;76.17;99144.84;7898401;30;19929;-72
2022/06/05 15:55:03;;;;;;;;;;;;;;;21.21;73.63;99172.66;7883780;30;20531;-72
2022/06/05 15:59:14;;;;;;;;;;;;;;;21.01;72.59;99181.59;7891974;30;19940;-72
2022/06/05 16:03:16;;;;;;;;;;;;;;;20.68;73.93;99192.91;7881779;30;19929;-74
2022/06/05 16:07:24;;;;;;;;;;;;;;;20.65;74.38;99195.69;7868466;30;19933;-74
2022/06/05 16:11:48;;;;;;;;;;;;;;;21.07;74.03;99200.63;7875053;30;19963;-74
2022/06/05 16:15:56;;;;;;;;;;;;;;;21.06;71.76;99191.00;7887754;30;19948;-73
2022/06/05 16:20:13;;;;;;;;;;;;;;;20.98;69.11;99200.22;7884523;30;19969;-74
2022/06/05 16:24:16;;;;;;;;;;;;;;;20.96;71.19;99208.22;7882067;30;19965;-74
2022/06/05 16:28:27;;;;;;;;;;;;;;;21.04;70.50;99215.75;7886248;30;19965;-76
2022/06/05 16:32:32;;;;;;;;;;;;;;;20.69;70.89;99223.63;7876683;30;20326;-76
2022/06/05 16:41:21;;;;;;;;;;;;;;;20.26;72.08;99240.56;7889973;30;19937;-75
2022/06/05 16:45:26;;;;;;;;;;;;;;;20.13;74.31;99221.00;7889299;30;20465;-75
2022/06/05 16:49:47;;;;;;;;;;;;;;;20.04;75.47;99208.22;7882975;30;19934;-75
2022/06/05 16:54:07;;;;;;;;;;;;;;;19.93;76.89;99206.09;7886023;30;19937;-76
2022/06/05 16:58:08;;;;;;;;;;;;;;;19.80;77.27;99199.66;7878327;30;20319;-75
2022/06/05 17:02:17;;;;;;;;;;;;;;;19.66;76.67;99213.44;7880301;30;19941;-75
2022/06/05 17:06:32;;;;;;;;;;;;;;;19.44;75.74;99210.00;7884673;30;20286;-75
2022/06/05 17:10:44;;;;;;;;;;;;;;;19.28;76.36;99210.66;7880373;30;19930;-75
2022/06/05 17:14:49;;;;;;;;;;;;;;;19.11;77.86;99226.31;7879082;30;19930;-76
2022/06/05 17:18:55;;;;;;;;;;;;;;;19.04;78.61;99226.66;7880064;30;20503;-76
2022/06/05 17:22:58;;;;;;;;;;;;;;;18.98;79.76;99233.00;7875698;30;20041;-76
2022/06/05 17:27:18;;;;;;;;;;;;;;;18.92;81.27;99215.69;7882488;30;20332;-76
2022/06/05 17:31:22;;;;;;;;;;;;;;;18.92;81.76;99217.47;7883949;30;19991;-77
2022/06/05 17:35:37;;;;;;;;;;;;;;;18.89;83.12;99202.69;7876822;30;19986;-74
2022/06/05 17:39:43;;;;;;;;;;;;;;;18.93;83.85;99201.63;7875570;30;19994;-76
2022/06/05 17:44:11;;;;;;;;;;;;;;;18.93;82.80;99221.81;7896264;29;20025;-76
2022/06/05 17:48:19;;;;;;;;;;;;;;;18.88;83.53;99231.69;7880685;30;20032;-77
2022/06/05 17:52:23;;;;;;;;;;;;;;;18.84;84.56;99235.34;7880540;30;20597;-77
2022/06/05 17:56:28;;;;;;;;;;;;;;;18.80;85.61;99239.00;7877004;30;19936;-76
2022/06/05 18:00:31;;;;;;;;;;;;;;;18.71;85.95;99235.00;7890671;30;20367;-76
2022/06/05 18:04:32;;;;;;;;;;;;;;;18.69;85.01;99235.06;7867967;30;19969;-76
2022/06/05 18:08:34;;;;;;;;;;;;;;;18.69;83.40;99229.78;7875736;30;20444;-76
2022/06/05 18:12:39;;;;;;;;;;;;;;;18.74;83.93;99215.59;7866676;30;19933;-76
2022/06/05 18:16:43;;;;;;;;;;;;;;;18.77;85.58;99223.34;7880567;30;19990;-76
2022/06/05 18:20:52;;;;;;;;;;;;;;;18.69;85.50;99226.31;7875995;30;20326;-76
2022/06/05 18:24:54;;;;;;;;;;;;;;;18.64;85.67;99229.09;7872368;30;20012;-76
2022/06/05 18:28:56;;;;;;;;;;;;;;;18.57;85.90;99230.25;7879280;30;20522;-75
2022/06/05 18:32:59;;;;;;;;;;;;;;;18.45;86.69;99225.44;7876685;30;19985;-75
2022/06/05 18:41:33;;;;;;;;;;;;;;;18.28;88.31;99228.72;7883118;30;20347;-74
2022/06/05 18:45:44;;;;;;;;;;;;;;;18.22;88.80;99222.88;7879773;30;19929;-76
2022/06/05 18:49:46;;;;;;;;;;;;;;;18.19;89.44;99230.88;7878443;30;19934;-76
2022/06/05 18:53:53;;;;;;;;;;;;;;;18.11;89.84;99226.75;7879000;30;19969;-77
2022/06/05 18:57:54;;;;;;;;;;;;;;;18.01;90.26;99222.75;7878916;30;20324;-76
2022/06/05 19:01:57;;;;;;;;;;;;;;;18.00;90.74;99234.19;7876860;30;20351;-76
2022/06/05 19:05:59;;;;;;;;;;;;;;;17.96;90.29;99237.00;7891246;30;19929;-76
2022/06/05 19:10:24;;;;;;;;;;;;;;;17.94;89.85;99250.16;7877286;30;19937;-75
2022/06/05 19:14:30;;;;;;;;;;;;;;;17.92;90.09;99253.75;7881447;30;19929;-76
2022/06/05 19:18:41;;;;;;;;;;;;;;;17.95;89.79;99249.25;7881732;30;19929;-75
2022/06/05 19:22:46;;;;;;;;;;;;;;;17.96;90.13;99256.25;7875368;30;20853;-77
2022/06/05 19:26:47;;;;;;;;;;;;;;;17.96;89.46;99256.25;7882367;30;19960;-77
2022/06/05 19:30:51;;;;;;;;;;;;;;;17.93;88.92;99256.31;7873588;30;19930;-76
2022/06/05 19:34:54;;;;;;;;;;;;;;;17.90;89.43;99245.94;7875479;30;19940;-75
2022/06/05 19:38:57;;;;;;;;;;;;;;;17.84;89.19;99248.78;7865780;30;19936;-74
2022/06/05 19:43:04;;;;;;;;;;;;;;;17.77;89.34;99255.16;7875905;30;19966;-75
2022/06/05 19:47:23;;;;;;;;;;;;;;;17.70;89.74;99269.44;7880286;30;20399;-74
2022/06/05 19:51:28;;;;;;;;;;;;;;;17.59;90.08;99274.16;7871563;30;19930;-75
2022/06/05 19:55:51;;;;;;;;;;;;;;;17.48;90.72;99282.44;7869460;30;19929;-74
2022/06/05 20:00:19;;;;;;;;;;;;;;;17.32;91.33;99286.47;7877339;30;19955;-74
2022/06/05 20:04:21;;;;;;;;;;;;;;;17.25;91.73;99300.72;7877350;29;19930;-74
2022/06/05 20:08:39;;;;;;;;;;;;;;;17.19;92.53;99300.00;7880905;30;19980;-74
2022/06/05 20:12:45;;;;;;;;;;;;;;;17.13;92.73;99304.59;7879246;29;19997;-74
2022/06/05 20:21:09;;;;;;;;;;;;;;;16.88;93.19;99308.00;7881971;30;19934;-74
2022/06/05 20:25:23;;;;;;;;;;;;;;;16.81;93.26;99314.34;7869246;30;20472;-74
2022/06/05 20:29:33;;;;;;;;;;;;;;;16.70;93.72;99311.19;7885651;30;20039;-74
2022/06/05 20:33:40;;;;;;;;;;;;;;;16.60;93.59;99305.31;7868733;30;19961;-73
2022/06/05 20:37:43;;;;;;;;;;;;;;;16.52;93.80;99301.25;7871581;30;19989;-73
2022/06/05 20:41:45;;;;;;;;;;;;;;;16.43;94.24;99297.09;7869884;30;20492;-73
2022/06/05 20:45:48;;;;;;;;;;;;;;;16.31;94.22;99293.06;7871553;30;20418;-73
2022/06/05 20:49:53;;;;;;;;;;;;;;;16.23;94.57;99295.06;7880333;30;19937;-73
2022/06/05 20:53:59;;;;;;;;;;;;;;;16.19;94.87;99292.59;7880021;30;19930;-73
2022/06/05 20:58:20;;;;;;;;;;;;;;;16.11;94.39;99291.94;7881355;30;19929;-73
2022/06/05 21:19:46;;;;;;;;;;;;;;;15.85;95.92;99326.72;7897989;30;20387;-73
2022/06/05 21:23:47;;;;;;;;;;;;;;;15.78;95.64;99338.22;7888460;30;19930;-73
2022/06/05 21:27:50;;;;;;;;;;;;;;;15.74;95.46;99341.84;7877382;30;19934;-73
2022/06/05 21:31:53;;;;;;;;;;;;;;;15.66;95.32;99347.28;7893977;30;20498;-73
2022/06/05 21:35:57;;;;;;;;;;;;;;;15.60;95.50;99350.91;7886428;30;19979;-72
2022/06/05 21:40:02;;;;;;;;;;;;;;;15.57;95.71;99356.19;7879615;30;20032;-72
2022/06/05 21:44:42;;;;;;;;;;;;;;;15.56;96.16;99361.47;7874058;30;19968;-72
2022/06/05 21:48:45;;;;;;;;;;;;;;;15.54;96.31;99355.41;7926209;29;19933;-72
2022/06/05 21:52:48;;;;;;;;;;;;;;;15.55;96.22;99373.69;7941851;29;19956;-72
2022/06/05 21:56:51;;;;;;;;;;;;;;;15.55;96.55;99372.81;7933347;29;19965;-73
2022/06/05 22:00:53;;;;;;;;;;;;;;;15.56;96.77;99379.78;7914204;29;19939;-73
2022/06/05 22:04:54;;;;;;;;;;;;;;;15.54;96.57;99385.06;7936566;29;19925;-73
2022/06/05 22:08:58;;;;;;;;;;;;;;;15.49;96.41;99388.69;7913790;29;19964;-73
2022/06/05 22:13:00;;;;;;;;;;;;;;;15.47;97.11;99386.13;7937374;29;19939;-74
2022/06/05 22:17:02;;;;;;;;;;;;;;;15.48;97.14;99386.97;7920292;29;19959;-74
2022/06/05 22:21:04;;;;;;;;;;;;;;;15.45;97.28;99387.91;7877894;30;19957;-74
2022/06/05 22:25:05;;;;;;;;;;;;;;;15.47;97.76;99395.72;7879117;30;19976;-73
2022/06/05 22:29:07;;;;;;;;;;;;;;;15.46;97.80;99400.09;7894116;30;19929;-73
2022/06/05 22:33:09;;;;;;;;;;;;;;;15.47;97.96;99395.72;7875152;30;19929;-73